createdAt,value
2022-10-10T00:00:14.191Z,98160.25
2022-10-10T00:02:40.111Z,98148.81
2022-10-10T00:05:06.027Z,98155.34
2022-10-10T00:07:31.943Z,98148.84
2022-10-10T00:09:57.841Z,98144.81
2022-10-10T00:12:23.779Z,98140.56
2022-10-10T00:14:49.719Z,98146.63
2022-10-10T00:17:15.644Z,98148.91
2022-10-10T00:19:41.573Z,98143.34
2022-10-10T00:22:07.478Z,98145.91
2022-10-10T00:24:33.397Z,98142.84
2022-10-10T00:26:59.314Z,98137.59
2022-10-10T00:29:25.237Z,98142.72
2022-10-10T00:31:51.162Z,98135.41
2022-10-10T00:34:17.094Z,98137.81
2022-10-10T00:36:43.038Z,98128.41
2022-10-10T00:39:08.956Z,98141.66
2022-10-10T00:41:34.855Z,98144.44
2022-10-10T00:44:00.774Z,98130.16
2022-10-10T00:46:26.681Z,98129.09
2022-10-10T00:48:52.615Z,98121.41
2022-10-10T00:51:18.523Z,98124.03
2022-10-10T00:53:44.441Z,98131.69
2022-10-10T00:56:10.710Z,98134.69
2022-10-10T00:58:36.957Z,98135.69
2022-10-10T01:01:03.207Z,98132.66
2022-10-10T01:03:29.493Z,98130.16
2022-10-10T01:05:55.707Z,98130.22
2022-10-10T01:08:21.899Z,98116.59
2022-10-10T01:10:48.151Z,98122.88
2022-10-10T01:13:14.372Z,98124.97
2022-10-10T03:24:45.126Z,98077.56
2022-10-10T03:27:11.025Z,98077.75
2022-10-10T03:29:36.944Z,98083.13
2022-10-10T03:34:46.919Z,98081.06
2022-10-10T03:37:12.828Z,98079.53
2022-10-10T03:39:38.750Z,98073.25
2022-10-10T03:42:04.710Z,98068.75
2022-10-10T03:44:30.656Z,98071.63
2022-10-10T03:46:56.563Z,98076.94
2022-10-10T03:49:22.480Z,98078.56
2022-10-10T03:51:48.393Z,98078.94
2022-10-10T03:54:14.342Z,98077.84
2022-10-10T03:56:40.238Z,98071.66
2022-10-10T03:59:06.155Z,98071.28
2022-10-10T04:01:32.238Z,98070.09
2022-10-10T04:03:58.185Z,98070.34
2022-10-10T04:06:24.081Z,98075.06
2022-10-10T04:08:49.981Z,98070.03
2022-10-10T04:11:15.921Z,98074.53
2022-10-10T04:13:41.815Z,98073.75
2022-10-10T04:16:07.733Z,98065.91
2022-10-10T04:18:33.650Z,98065.13
2022-10-10T04:20:59.556Z,98065.16
2022-10-10T04:23:25.489Z,98060.88
2022-10-10T04:25:51.405Z,98061.44
2022-10-10T04:28:17.365Z,98067.38
2022-10-10T04:30:43.298Z,98065.72
2022-10-10T04:33:09.272Z,98056.56
2022-10-10T04:35:37.106Z,98055.56
2022-10-10T04:38:03.296Z,98056.63
2022-10-10T04:40:29.205Z,98058.44
2022-10-10T04:42:55.120Z,98059.06
2022-10-10T04:45:21.046Z,98061.28
2022-10-10T04:47:46.956Z,98062.50
2022-10-10T04:50:12.868Z,98058.00
2022-10-10T04:52:38.809Z,98056.22
2022-10-10T04:55:04.721Z,98057.84
2022-10-10T04:57:30.655Z,98058.88
2022-10-10T04:59:56.598Z,98060.56
2022-10-10T05:02:22.538Z,98061.47
2022-10-10T05:04:48.425Z,98059.16
2022-10-10T05:07:14.365Z,98064.63
2022-10-10T05:09:40.254Z,98059.19
2022-10-10T05:12:06.207Z,98068.22
2022-10-10T05:14:32.115Z,98061.53
2022-10-10T05:16:58.160Z,98068.03
2022-10-10T05:19:24.171Z,98059.69
2022-10-10T05:21:50.120Z,98063.56
2022-10-10T05:24:16.079Z,98061.16
2022-10-10T05:26:43.341Z,98064.44
2022-10-10T05:29:09.434Z,98062.81
2022-10-10T05:31:35.367Z,98061.38
2022-10-10T05:34:01.261Z,98065.63
2022-10-10T05:36:27.176Z,98066.06
2022-10-10T05:38:53.179Z,98062.59
2022-10-10T05:41:19.075Z,98070.94
2022-10-10T05:43:44.986Z,98062.59
2022-10-10T05:46:10.901Z,98065.06
2022-10-10T05:48:36.817Z,98071.19
2022-10-10T05:51:02.747Z,98074.84
2022-10-10T05:53:28.654Z,98069.16
2022-10-10T05:55:54.610Z,98065.25
2022-10-10T05:58:20.550Z,98069.75
2022-10-10T06:00:46.482Z,98071.63
2022-10-10T06:03:12.702Z,98069.16
2022-10-10T06:05:38.910Z,98071.63
2022-10-10T06:08:10.666Z,98082.28
2022-10-10T06:10:37.989Z,98080.25
2022-10-10T06:13:04.165Z,98074.69
2022-10-10T06:15:30.446Z,98081.38
2022-10-10T06:17:56.503Z,98078.81
2022-10-10T08:13:56.204Z,98102.59
2022-10-10T08:16:22.126Z,98104.16
2022-10-10T08:18:48.035Z,98101.88
2022-10-10T08:21:13.978Z,98108.09
2022-10-10T08:23:39.899Z,98107.06
2022-10-10T08:26:05.803Z,98098.25
2022-10-10T08:28:31.811Z,98096.53
2022-10-10T08:30:57.814Z,98101.50
2022-10-10T08:33:23.710Z,98089.00
2022-10-10T08:35:49.641Z,98096.19
2022-10-10T08:38:15.612Z,98099.75
2022-10-10T08:40:41.527Z,98100.66
2022-10-10T08:43:07.444Z,98086.22
2022-10-10T08:45:33.382Z,98088.06
2022-10-10T08:47:59.290Z,98095.81
2022-10-10T08:50:25.227Z,98092.78
2022-10-10T08:52:51.507Z,98088.69
2022-10-10T08:55:17.603Z,98086.66
2022-10-10T08:57:43.507Z,98080.47
2022-10-10T09:00:09.444Z,98079.66
2022-10-10T09:02:53.210Z,98083.34
2022-10-10T09:05:20.191Z,98074.06
2022-10-10T09:07:46.112Z,98076.31
2022-10-10T09:10:12.006Z,98073.13
2022-10-10T09:12:37.949Z,98066.59
2022-10-10T09:15:03.860Z,98071.47
2022-10-10T09:17:29.820Z,98073.25
2022-10-10T09:19:55.764Z,98070.44
2022-10-10T09:22:21.702Z,98063.50
2022-10-10T09:24:47.661Z,98061.75
2022-10-10T09:27:13.577Z,98059.00
2022-10-10T09:29:39.504Z,98060.19
2022-10-10T09:32:05.392Z,98064.53
2022-10-10T09:34:31.321Z,98055.78
2022-10-10T09:36:59.352Z,98056.38
2022-10-10T09:39:25.439Z,98049.41
2022-10-10T09:41:51.353Z,98043.88
2022-10-10T09:44:17.287Z,98039.59
2022-10-10T09:46:43.192Z,98042.84
2022-10-10T09:49:09.131Z,98042.47
2022-10-10T09:51:35.119Z,98038.22
2022-10-10T09:54:01.027Z,98036.63
2022-10-10T09:56:26.964Z,98036.84
2022-10-10T09:58:52.874Z,98032.41
2022-10-10T10:01:18.837Z,98035.13
2022-10-10T10:03:44.814Z,98029.28
2022-10-10T10:06:10.730Z,98022.47
2022-10-10T10:08:36.621Z,98018.75
2022-10-10T10:11:02.699Z,98021.41
2022-10-10T10:13:28.685Z,98027.94
2022-10-10T10:15:54.610Z,98023.75
2022-10-10T10:18:20.551Z,98020.78
2022-10-10T10:20:46.954Z,98014.69
2022-10-10T10:23:12.870Z,98000.06
2022-10-10T10:25:38.798Z,98005.66
2022-10-10T10:28:04.857Z,98007.16
2022-10-10T10:30:30.914Z,97999.13
2022-10-10T10:32:56.839Z,98011.34
2022-10-10T10:35:22.751Z,97998.56
2022-10-10T10:37:48.659Z,97999.31
2022-10-10T10:40:14.670Z,97995.69
2022-10-10T10:42:40.631Z,97995.59
2022-10-10T10:45:06.563Z,97990.91
2022-10-10T10:47:32.863Z,97988.06
2022-10-10T10:49:59.136Z,97986.94
2022-10-10T10:52:25.346Z,97995.59
2022-10-10T10:54:51.554Z,97982.69
2022-10-10T10:57:40.886Z,97972.22
2022-10-10T11:00:26.353Z,97977.06
2022-10-10T11:02:57.397Z,97981.31
2022-10-10T11:05:35.313Z,97971.59
2022-10-10T12:59:03.783Z,97847.25
2022-10-10T13:01:29.760Z,97849.19
2022-10-10T13:03:55.706Z,97843.53
2022-10-10T13:06:21.681Z,97837.19
2022-10-10T13:08:47.598Z,97844.03
2022-10-10T13:11:13.497Z,97840.84
2022-10-10T13:13:39.451Z,97834.25
2022-10-10T13:16:05.361Z,97831.22
2022-10-10T13:18:31.303Z,97827.34
2022-10-10T13:20:57.250Z,97825.13
2022-10-10T13:23:23.196Z,97823.81
2022-10-10T13:25:49.130Z,97825.28
2022-10-10T13:28:15.103Z,97818.63
2022-10-10T13:30:41.056Z,97825.13
2022-10-10T13:33:06.973Z,97821.88
2022-10-10T13:35:32.898Z,97822.75
2022-10-10T13:37:58.827Z,97824.03
2022-10-10T13:40:24.773Z,97824.25
2022-10-10T13:42:50.681Z,97818.91
2022-10-10T13:45:16.583Z,97821.56
2022-10-10T13:47:42.533Z,97811.50
2022-10-10T13:50:08.439Z,97818.94
2022-10-10T13:52:34.352Z,97815.25
2022-10-10T13:55:00.255Z,97814.34
2022-10-10T13:57:26.206Z,97805.59
2022-10-10T13:59:52.106Z,97809.34
2022-10-10T14:02:18.054Z,97804.03
2022-10-10T14:04:43.979Z,97805.16
2022-10-10T14:07:09.892Z,97799.38
2022-10-10T14:09:35.811Z,97809.06
2022-10-10T14:12:01.724Z,97803.44
2022-10-10T14:14:27.642Z,97799.97
2022-10-10T14:16:53.559Z,97796.78
2022-10-10T14:19:19.473Z,97800.00
2022-10-10T14:21:45.407Z,97795.69
2022-10-10T14:24:11.333Z,97801.63
2022-10-10T14:26:37.233Z,97793.44
2022-10-10T14:29:03.153Z,97794.41
2022-10-10T14:31:29.072Z,97797.19
2022-10-10T14:33:55.023Z,97795.03
2022-10-10T14:36:20.927Z,97797.19
2022-10-10T14:38:46.852Z,97794.19
2022-10-10T14:41:12.745Z,97794.97
2022-10-10T14:43:41.225Z,97793.28
2022-10-10T14:46:10.848Z,97798.16
2022-10-10T14:48:36.751Z,97790.78
2022-10-10T14:51:34.158Z,97782.31
2022-10-10T14:54:12.030Z,97792.88
2022-10-10T14:57:07.550Z,97795.34
2022-10-10T14:59:47.600Z,97799.34
2022-10-10T15:02:06.290Z,97796.94
2022-10-10T15:04:32.215Z,97794.03
2022-10-10T15:07:12.399Z,97786.88
2022-10-10T15:09:42.924Z,97790.34
2022-10-10T15:12:13.520Z,97789.97
2022-10-10T15:14:39.440Z,97795.59
2022-10-10T15:17:05.361Z,97788.00
2022-10-10T15:19:31.334Z,97793.88
2022-10-10T15:21:57.329Z,97794.06
2022-10-10T15:24:23.310Z,97791.34
2022-10-10T15:26:49.232Z,97795.16
2022-10-10T15:29:15.155Z,97802.88
2022-10-10T15:31:41.073Z,97797.53
2022-10-10T15:34:07.062Z,97799.78
2022-10-10T15:36:33.281Z,97801.38
2022-10-10T15:38:59.483Z,97800.19
2022-10-10T15:41:25.687Z,97805.63
2022-10-10T15:43:51.896Z,97801.56
2022-10-10T15:46:18.094Z,97806.34
2022-10-10T15:48:44.258Z,97803.53
2022-10-10T15:51:10.306Z,97800.41
2022-10-10T17:48:22.927Z,97851.47
2022-10-10T17:50:48.836Z,97856.88
2022-10-10T17:53:14.753Z,97847.97
2022-10-10T17:55:40.656Z,97846.00
2022-10-10T17:58:06.577Z,97858.81
2022-10-10T18:00:32.472Z,97851.56
2022-10-10T18:02:58.412Z,97852.97
2022-10-10T18:05:24.325Z,97853.03
2022-10-10T18:07:50.309Z,97855.22
2022-10-10T18:10:16.219Z,97862.78
2022-10-10T18:12:42.487Z,97857.00
2022-10-10T18:15:08.435Z,97856.75
2022-10-10T18:17:34.329Z,97857.13
2022-10-10T18:20:00.249Z,97862.31
2022-10-10T18:22:26.205Z,97868.31
2022-10-10T18:24:52.115Z,97862.03
2022-10-10T18:27:18.056Z,97861.59
2022-10-10T18:29:43.951Z,97861.59
2022-10-10T18:32:09.876Z,97859.94
2022-10-10T18:34:35.811Z,97862.03
2022-10-10T18:37:01.801Z,97861.81
2022-10-10T18:39:32.897Z,97861.59
2022-10-10T18:41:59.213Z,97872.63
2022-10-10T18:44:25.136Z,97870.69
2022-10-10T18:46:51.053Z,97867.81
2022-10-10T18:49:19.827Z,97869.88
2022-10-10T18:51:45.766Z,97874.25
2022-10-10T18:54:11.669Z,97872.47
2022-10-10T18:56:37.598Z,97874.72
2022-10-10T18:59:03.530Z,97873.13
2022-10-10T19:01:29.474Z,97871.56
2022-10-10T19:03:55.447Z,97873.13
2022-10-10T19:06:21.353Z,97869.66
2022-10-10T19:08:47.313Z,97866.19
2022-10-10T19:11:13.217Z,97859.97
2022-10-10T19:13:39.163Z,97869.81
2022-10-10T19:16:05.085Z,97859.91
2022-10-10T19:18:31.022Z,97858.34
2022-10-10T19:20:56.983Z,97848.91
2022-10-10T19:23:22.875Z,97846.91
2022-10-10T19:25:48.868Z,97854.00
2022-10-10T19:28:14.890Z,97848.75
2022-10-10T19:30:40.864Z,97850.97
2022-10-10T19:33:06.800Z,97847.16
2022-10-10T19:35:32.746Z,97854.69
2022-10-10T19:37:58.676Z,97848.56
2022-10-10T19:40:24.577Z,97851.22
2022-10-10T19:42:50.483Z,97847.75
2022-10-10T19:45:16.402Z,97854.75
2022-10-10T19:47:42.398Z,97859.44
2022-10-10T19:50:08.316Z,97860.88
2022-10-10T19:52:34.216Z,97861.69
2022-10-10T19:55:00.212Z,97865.88
2022-10-10T19:57:26.139Z,97872.75
2022-10-10T19:59:52.074Z,97859.84
2022-10-10T20:02:17.988Z,97865.03
2022-10-10T20:04:43.895Z,97864.56
2022-10-10T20:07:10.529Z,97866.25
2022-10-10T20:09:36.502Z,97870.97
2022-10-10T20:12:02.426Z,97874.44
2022-10-10T20:14:28.378Z,97869.59
2022-10-10T20:16:54.317Z,97865.41
2022-10-10T20:19:20.229Z,97870.78
2022-10-10T20:21:46.134Z,97873.63
2022-10-10T20:24:12.058Z,97872.44
2022-10-10T20:26:38.287Z,97876.69
2022-10-10T20:29:04.526Z,97877.31
2022-10-10T20:31:30.720Z,97881.63
2022-10-10T20:39:17.737Z,97884.28
2022-10-10T22:41:41.838Z,97866.84
2022-10-10T22:44:07.775Z,97873.94
2022-10-10T22:46:33.725Z,97860.91
2022-10-10T22:48:59.636Z,97865.81
2022-10-10T22:51:25.550Z,97858.03
2022-10-10T22:53:51.467Z,97859.88
2022-10-10T22:56:17.399Z,97866.41
2022-10-10T22:58:43.294Z,97851.94
2022-10-10T23:01:09.257Z,97855.81
2022-10-10T23:03:35.210Z,97846.84
2022-10-10T23:06:01.260Z,97849.28
2022-10-10T23:08:27.348Z,97850.31
2022-10-10T23:10:53.265Z,97843.59
2022-10-10T23:13:19.210Z,97851.31
2022-10-10T23:15:45.123Z,97837.28
2022-10-10T23:18:11.022Z,97841.13
2022-10-10T23:20:36.970Z,97839.72
2022-10-10T23:23:02.876Z,97845.41
2022-10-10T23:25:28.763Z,97837.47
2022-10-10T23:27:54.714Z,97836.25
2022-10-10T23:30:20.610Z,97839.31
2022-10-10T23:32:46.554Z,97831.78
2022-10-10T23:35:12.454Z,97838.09
2022-10-10T23:37:38.396Z,97837.06
2022-10-10T23:40:04.322Z,97829.94
2022-10-10T23:42:30.227Z,97834.03
2022-10-10T23:44:56.126Z,97836.03
2022-10-10T23:47:22.055Z,97847.03
2022-10-10T23:49:47.957Z,97835.63
2022-10-10T23:52:13.870Z,97838.50
2022-10-10T23:54:39.808Z,97835.03
2022-10-10T23:57:05.753Z,97832.56
2022-10-10T23:59:31.674Z,97844.00
